sensor_id;sensor_type;location;lat;lon;timestamp;P1;durP1;ratioP1;P2;durP2;ratioP2
42168;SDS011;27838;43.858;25.974;2022-11-04T00:02:00;18.83;;;10.38;;
42168;SDS011;27838;43.858;25.974;2022-11-04T00:04:27;16.90;;;10.73;;
42168;SDS011;27838;43.858;25.974;2022-11-04T00:06:55;23.45;;;10.95;;
42168;SDS011;27838;43.858;25.974;2022-11-04T00:09:23;17.65;;;10.32;;
42168;SDS011;27838;43.858;25.974;2022-11-04T00:11:54;17.67;;;10.63;;
42168;SDS011;27838;43.858;25.974;2022-11-04T00:14:39;22.98;;;10.27;;
42168;SDS011;27838;43.858;25.974;2022-11-04T00:17:10;19.48;;;10.38;;
42168;SDS011;27838;43.858;25.974;2022-11-04T00:19:52;18.08;;;10.85;;
42168;SDS011;27838;43.858;25.974;2022-11-04T00:22:38;20.08;;;11.48;;
42168;SDS011;27838;43.858;25.974;2022-11-04T00:25:23;16.58;;;10.38;;
42168;SDS011;27838;43.858;25.974;2022-11-04T00:30:56;20.17;;;10.82;;
42168;SDS011;27838;43.858;25.974;2022-11-04T00:33:48;17.33;;;11.25;;
42168;SDS011;27838;43.858;25.974;2022-11-04T00:36:15;21.65;;;11.65;;
42168;SDS011;27838;43.858;25.974;2022-11-04T00:38:41;17.13;;;11.43;;
42168;SDS011;27838;43.858;25.974;2022-11-04T00:41:08;16.70;;;11.73;;
42168;SDS011;27838;43.858;25.974;2022-11-04T00:43:49;23.10;;;11.88;;
42168;SDS011;27838;43.858;25.974;2022-11-04T00:46:15;20.45;;;12.60;;
42168;SDS011;27838;43.858;25.974;2022-11-04T00:48:42;18.17;;;11.70;;
42168;SDS011;27838;43.858;25.974;2022-11-04T00:51:08;24.63;;;12.80;;
42168;SDS011;27838;43.858;25.974;2022-11-04T00:53:35;25.55;;;12.27;;
42168;SDS011;27838;43.858;25.974;2022-11-04T00:56:01;23.45;;;12.90;;
42168;SDS011;27838;43.858;25.974;2022-11-04T00:58:28;23.85;;;12.80;;
42168;SDS011;27838;43.858;25.974;2022-11-04T01:00:54;25.27;;;12.80;;
42168;SDS011;27838;43.858;25.974;2022-11-04T01:03:21;20.67;;;12.90;;
42168;SDS011;27838;43.858;25.974;2022-11-04T01:05:47;24.85;;;12.77;;
42168;SDS011;27838;43.858;25.974;2022-11-04T01:08:14;21.48;;;12.95;;
42168;SDS011;27838;43.858;25.974;2022-11-04T01:10:40;27.38;;;14.05;;
42168;SDS011;27838;43.858;25.974;2022-11-04T01:13:11;23.50;;;13.75;;
42168;SDS011;27838;43.858;25.974;2022-11-04T01:15:38;23.58;;;12.18;;
42168;SDS011;27838;43.858;25.974;2022-11-04T01:18:05;25.27;;;13.18;;
42168;SDS011;27838;43.858;25.974;2022-11-04T01:20:32;20.15;;;12.70;;
42168;SDS011;27838;43.858;25.974;2022-11-04T01:22:59;25.77;;;13.45;;
42168;SDS011;27838;43.858;25.974;2022-11-04T01:25:25;23.95;;;13.02;;
42168;SDS011;27838;43.858;25.974;2022-11-04T01:27:52;29.23;;;13.57;;
42168;SDS011;27838;43.858;25.974;2022-11-04T01:30:18;25.73;;;12.75;;
42168;SDS011;27838;43.858;25.974;2022-11-04T01:32:45;19.77;;;13.15;;
42168;SDS011;27838;43.858;25.974;2022-11-04T01:35:11;21.33;;;13.55;;
42168;SDS011;27838;43.858;25.974;2022-11-04T01:37:38;20.38;;;12.88;;
42168;SDS011;27838;43.858;25.974;2022-11-04T01:40:05;30.15;;;13.93;;
42168;SDS011;27838;43.858;25.974;2022-11-04T01:42:32;26.42;;;13.05;;
42168;SDS011;27838;43.858;25.974;2022-11-04T01:44:59;23.55;;;13.02;;
42168;SDS011;27838;43.858;25.974;2022-11-04T01:52:37;21.33;;;13.40;;
42168;SDS011;27838;43.858;25.974;2022-11-04T01:55:15;57.15;;;18.10;;
42168;SDS011;27838;43.858;25.974;2022-11-04T01:57:46;37.28;;;14.73;;
42168;SDS011;27838;43.858;25.974;2022-11-04T02:00:16;29.15;;;13.68;;
42168;SDS011;27838;43.858;25.974;2022-11-04T02:02:45;29.45;;;14.43;;
42168;SDS011;27838;43.858;25.974;2022-11-04T02:05:32;19.38;;;11.18;;
42168;SDS011;27838;43.858;25.974;2022-11-04T02:08:00;24.58;;;13.23;;
42168;SDS011;27838;43.858;25.974;2022-11-04T02:10:29;21.08;;;12.38;;
42168;SDS011;27838;43.858;25.974;2022-11-04T02:12:57;19.80;;;12.30;;
42168;SDS011;27838;43.858;25.974;2022-11-04T02:15:29;28.65;;;13.50;;
42168;SDS011;27838;43.858;25.974;2022-11-04T02:34:54;24.17;;;12.38;;
42168;SDS011;27838;43.858;25.974;2022-11-04T02:42:44;16.77;;;10.48;;
42168;SDS011;27838;43.858;25.974;2022-11-04T02:45:32;18.02;;;10.90;;
42168;SDS011;27838;43.858;25.974;2022-11-04T02:51:02;25.05;;;12.23;;
42168;SDS011;27838;43.858;25.974;2022-11-04T02:56:39;28.58;;;11.55;;
42168;SDS011;27838;43.858;25.974;2022-11-04T02:59:14;35.28;;;13.60;;
42168;SDS011;27838;43.858;25.974;2022-11-04T03:01:47;23.33;;;11.85;;
42168;SDS011;27838;43.858;25.974;2022-11-04T03:04:18;22.50;;;13.45;;
42168;SDS011;27838;43.858;25.974;2022-11-04T03:06:49;24.77;;;12.55;;
42168;SDS011;27838;43.858;25.974;2022-11-04T03:09:17;23.83;;;11.98;;
42168;SDS011;27838;43.858;25.974;2022-11-04T03:11:48;20.38;;;12.23;;
42168;SDS011;27838;43.858;25.974;2022-11-04T03:14:20;26.23;;;13.07;;
42168;SDS011;27838;43.858;25.974;2022-11-04T03:16:53;23.05;;;12.35;;
42168;SDS011;27838;43.858;25.974;2022-11-04T03:19:25;30.00;;;13.23;;
42168;SDS011;27838;43.858;25.974;2022-11-04T03:21:59;28.50;;;12.48;;
42168;SDS011;27838;43.858;25.974;2022-11-04T03:27:01;28.83;;;12.65;;
42168;SDS011;27838;43.858;25.974;2022-11-04T03:29:36;23.95;;;13.48;;
42168;SDS011;27838;43.858;25.974;2022-11-04T03:34:50;24.20;;;13.20;;
42168;SDS011;27838;43.858;25.974;2022-11-04T03:37:17;30.25;;;12.13;;
42168;SDS011;27838;43.858;25.974;2022-11-04T03:39:44;20.95;;;11.18;;
42168;SDS011;27838;43.858;25.974;2022-11-04T03:42:11;22.55;;;12.48;;
42168;SDS011;27838;43.858;25.974;2022-11-04T03:44:49;22.75;;;12.13;;
42168;SDS011;27838;43.858;25.974;2022-11-04T03:47:18;23.98;;;14.30;;
42168;SDS011;27838;43.858;25.974;2022-11-04T03:49:48;29.95;;;12.63;;
42168;SDS011;27838;43.858;25.974;2022-11-04T03:52:18;27.05;;;11.93;;
42168;SDS011;27838;43.858;25.974;2022-11-04T03:54:45;22.50;;;12.18;;
42168;SDS011;27838;43.858;25.974;2022-11-04T04:05:35;25.08;;;12.45;;
42168;SDS011;27838;43.858;25.974;2022-11-04T04:08:33;27.17;;;13.25;;
42168;SDS011;27838;43.858;25.974;2022-11-04T04:16:06;25.83;;;13.20;;
42168;SDS011;27838;43.858;25.974;2022-11-04T04:18:42;30.60;;;14.18;;
42168;SDS011;27838;43.858;25.974;2022-11-04T04:23:48;26.30;;;14.43;;
42168;SDS011;27838;43.858;25.974;2022-11-04T04:26:46;35.58;;;15.32;;
42168;SDS011;27838;43.858;25.974;2022-11-04T04:29:32;21.15;;;13.65;;
42168;SDS011;27838;43.858;25.974;2022-11-04T04:32:01;24.90;;;14.30;;
42168;SDS011;27838;43.858;25.974;2022-11-04T04:34:30;29.40;;;14.68;;
42168;SDS011;27838;43.858;25.974;2022-11-04T04:37:02;24.48;;;15.45;;
42168;SDS011;27838;43.858;25.974;2022-11-04T04:39:34;24.00;;;14.20;;
42168;SDS011;27838;43.858;25.974;2022-11-04T04:45:09;31.50;;;15.02;;
42168;SDS011;27838;43.858;25.974;2022-11-04T04:47:44;35.97;;;15.63;;
42168;SDS011;27838;43.858;25.974;2022-11-04T04:50:13;45.17;;;16.75;;
42168;SDS011;27838;43.858;25.974;2022-11-04T04:52:43;36.97;;;16.23;;
42168;SDS011;27838;43.858;25.974;2022-11-04T04:55:12;44.60;;;14.98;;
42168;SDS011;27838;43.858;25.974;2022-11-04T04:57:39;37.05;;;15.52;;
42168;SDS011;27838;43.858;25.974;2022-11-04T05:00:06;75.13;;;17.35;;
42168;SDS011;27838;43.858;25.974;2022-11-04T05:02:35;63.60;;;17.20;;
42168;SDS011;27838;43.858;25.974;2022-11-04T05:05:01;47.05;;;15.27;;
42168;SDS011;27838;43.858;25.974;2022-11-04T05:07:28;59.55;;;17.80;;
42168;SDS011;27838;43.858;25.974;2022-11-04T05:09:55;55.15;;;18.15;;
42168;SDS011;27838;43.858;25.974;2022-11-04T05:12:21;63.60;;;19.48;;
42168;SDS011;27838;43.858;25.974;2022-11-04T05:14:48;57.80;;;21.20;;
42168;SDS011;27838;43.858;25.974;2022-11-04T05:17:14;32.15;;;17.65;;
42168;SDS011;27838;43.858;25.974;2022-11-04T05:19:41;37.28;;;18.25;;
42168;SDS011;27838;43.858;25.974;2022-11-04T05:22:08;30.27;;;17.90;;
42168;SDS011;27838;43.858;25.974;2022-11-04T05:24:34;34.78;;;17.70;;
42168;SDS011;27838;43.858;25.974;2022-11-04T05:27:01;36.83;;;19.35;;
42168;SDS011;27838;43.858;25.974;2022-11-04T05:29:27;26.58;;;16.85;;
42168;SDS011;27838;43.858;25.974;2022-11-04T05:31:54;35.58;;;16.40;;
42168;SDS011;27838;43.858;25.974;2022-11-04T05:34:21;35.53;;;17.63;;
42168;SDS011;27838;43.858;25.974;2022-11-04T05:36:48;50.28;;;21.08;;
42168;SDS011;27838;43.858;25.974;2022-11-04T05:39:14;52.22;;;20.80;;
42168;SDS011;27838;43.858;25.974;2022-11-04T05:41:41;54.17;;;24.80;;
42168;SDS011;27838;43.858;25.974;2022-11-04T05:44:08;37.83;;;18.88;;
42168;SDS011;27838;43.858;25.974;2022-11-04T05:46:35;36.20;;;17.20;;
42168;SDS011;27838;43.858;25.974;2022-11-04T05:49:02;31.92;;;17.95;;
42168;SDS011;27838;43.858;25.974;2022-11-04T05:51:29;33.45;;;18.38;;
42168;SDS011;27838;43.858;25.974;2022-11-04T05:53:56;35.17;;;18.83;;
42168;SDS011;27838;43.858;25.974;2022-11-04T05:56:23;43.78;;;18.83;;
42168;SDS011;27838;43.858;25.974;2022-11-04T05:58:49;42.47;;;20.27;;
42168;SDS011;27838;43.858;25.974;2022-11-04T06:01:30;37.58;;;19.33;;
42168;SDS011;27838;43.858;25.974;2022-11-04T06:04:08;28.02;;;17.70;;
42168;SDS011;27838;43.858;25.974;2022-11-04T06:06:39;48.50;;;18.88;;
42168;SDS011;27838;43.858;25.974;2022-11-04T06:09:06;47.40;;;18.45;;
42168;SDS011;27838;43.858;25.974;2022-11-04T06:11:33;44.17;;;17.55;;
42168;SDS011;27838;43.858;25.974;2022-11-04T06:14:00;46.28;;;17.20;;
42168;SDS011;27838;43.858;25.974;2022-11-04T06:16:27;30.10;;;15.75;;
42168;SDS011;27838;43.858;25.974;2022-11-04T06:18:53;25.58;;;14.73;;
42168;SDS011;27838;43.858;25.974;2022-11-04T06:21:22;38.17;;;15.65;;
42168;SDS011;27838;43.858;25.974;2022-11-04T06:23:56;39.22;;;15.80;;
42168;SDS011;27838;43.858;25.974;2022-11-04T06:26:24;54.75;;;16.67;;
42168;SDS011;27838;43.858;25.974;2022-11-04T06:28:52;40.10;;;15.90;;
42168;SDS011;27838;43.858;25.974;2022-11-04T06:31:19;48.30;;;17.52;;
42168;SDS011;27838;43.858;25.974;2022-11-04T06:33:46;47.22;;;18.35;;
42168;SDS011;27838;43.858;25.974;2022-11-04T06:36:13;55.83;;;18.60;;
42168;SDS011;27838;43.858;25.974;2022-11-04T06:38:40;51.67;;;20.08;;
42168;SDS011;27838;43.858;25.974;2022-11-04T06:41:09;54.05;;;18.15;;
42168;SDS011;27838;43.858;25.974;2022-11-04T06:43:37;45.70;;;18.55;;
42168;SDS011;27838;43.858;25.974;2022-11-04T06:46:05;63.17;;;19.92;;
42168;SDS011;27838;43.858;25.974;2022-11-04T06:48:32;32.00;;;16.17;;
42168;SDS011;27838;43.858;25.974;2022-11-04T06:50:59;31.42;;;16.55;;
42168;SDS011;27838;43.858;25.974;2022-11-04T06:53:26;34.78;;;16.30;;
42168;SDS011;27838;43.858;25.974;2022-11-04T06:55:53;32.22;;;15.00;;
42168;SDS011;27838;43.858;25.974;2022-11-04T06:58:26;32.63;;;15.77;;
42168;SDS011;27838;43.858;25.974;2022-11-04T07:00:53;38.05;;;17.58;;
42168;SDS011;27838;43.858;25.974;2022-11-04T07:03:19;45.42;;;18.20;;
42168;SDS011;27838;43.858;25.974;2022-11-04T07:05:46;48.42;;;17.73;;
42168;SDS011;27838;43.858;25.974;2022-11-04T07:08:12;37.38;;;16.38;;
42168;SDS011;27838;43.858;25.974;2022-11-04T07:10:39;41.38;;;18.02;;
42168;SDS011;27838;43.858;25.974;2022-11-04T07:13:06;50.17;;;17.48;;
42168;SDS011;27838;43.858;25.974;2022-11-04T07:15:33;43.83;;;16.33;;
42168;SDS011;27838;43.858;25.974;2022-11-04T07:17:59;40.00;;;17.98;;
42168;SDS011;27838;43.858;25.974;2022-11-04T07:20:26;38.65;;;15.95;;
42168;SDS011;27838;43.858;25.974;2022-11-04T07:22:53;40.47;;;14.38;;
42168;SDS011;27838;43.858;25.974;2022-11-04T07:25:20;36.28;;;14.48;;
42168;SDS011;27838;43.858;25.974;2022-11-04T07:27:46;37.25;;;14.82;;
42168;SDS011;27838;43.858;25.974;2022-11-04T07:30:13;36.17;;;14.88;;
42168;SDS011;27838;43.858;25.974;2022-11-04T07:32:39;31.40;;;15.00;;
42168;SDS011;27838;43.858;25.974;2022-11-04T07:35:06;29.98;;;15.38;;
42168;SDS011;27838;43.858;25.974;2022-11-04T07:37:33;27.63;;;13.60;;
42168;SDS011;27838;43.858;25.974;2022-11-04T07:39:59;45.47;;;13.80;;
42168;SDS011;27838;43.858;25.974;2022-11-04T07:42:26;42.22;;;13.57;;
42168;SDS011;27838;43.858;25.974;2022-11-04T07:44:53;36.10;;;13.73;;
42168;SDS011;27838;43.858;25.974;2022-11-04T07:47:19;30.17;;;13.45;;
42168;SDS011;27838;43.858;25.974;2022-11-04T07:49:46;30.63;;;13.65;;
42168;SDS011;27838;43.858;25.974;2022-11-04T07:52:12;27.20;;;14.18;;
42168;SDS011;27838;43.858;25.974;2022-11-04T07:54:39;25.20;;;13.98;;
42168;SDS011;27838;43.858;25.974;2022-11-04T07:57:06;39.58;;;14.65;;
42168;SDS011;27838;43.858;25.974;2022-11-04T07:59:32;28.15;;;15.10;;
42168;SDS011;27838;43.858;25.974;2022-11-04T08:01:59;26.25;;;13.73;;
42168;SDS011;27838;43.858;25.974;2022-11-04T08:04:25;30.75;;;16.25;;
42168;SDS011;27838;43.858;25.974;2022-11-04T08:06:52;23.45;;;14.70;;
42168;SDS011;27838;43.858;25.974;2022-11-04T08:09:19;46.15;;;21.88;;
42168;SDS011;27838;43.858;25.974;2022-11-04T08:11:45;48.35;;;26.95;;
42168;SDS011;27838;43.858;25.974;2022-11-04T08:14:12;107.32;;;67.55;;
42168;SDS011;27838;43.858;25.974;2022-11-04T08:16:38;50.15;;;26.40;;
42168;SDS011;27838;43.858;25.974;2022-11-04T08:19:05;39.35;;;13.50;;
42168;SDS011;27838;43.858;25.974;2022-11-04T08:21:32;31.27;;;13.60;;
42168;SDS011;27838;43.858;25.974;2022-11-04T08:23:59;29.88;;;12.75;;
42168;SDS011;27838;43.858;25.974;2022-11-04T08:26:28;44.72;;;20.52;;
42168;SDS011;27838;43.858;25.974;2022-11-04T08:28:54;27.88;;;14.30;;
42168;SDS011;27838;43.858;25.974;2022-11-04T08:31:22;131.70;;;87.45;;
42168;SDS011;27838;43.858;25.974;2022-11-04T08:33:51;30.55;;;14.45;;
42168;SDS011;27838;43.858;25.974;2022-11-04T08:36:19;29.00;;;13.43;;
42168;SDS011;27838;43.858;25.974;2022-11-04T08:38:48;51.00;;;24.98;;
42168;SDS011;27838;43.858;25.974;2022-11-04T08:41:17;31.02;;;13.38;;
42168;SDS011;27838;43.858;25.974;2022-11-04T08:43:46;36.60;;;14.98;;
42168;SDS011;27838;43.858;25.974;2022-11-04T08:46:13;33.47;;;14.27;;
42168;SDS011;27838;43.858;25.974;2022-11-04T08:48:40;30.35;;;13.50;;
42168;SDS011;27838;43.858;25.974;2022-11-04T08:51:13;43.47;;;22.20;;
42168;SDS011;27838;43.858;25.974;2022-11-04T08:53:44;27.20;;;12.55;;
42168;SDS011;27838;43.858;25.974;2022-11-04T08:56:11;25.92;;;17.20;;
42168;SDS011;27838;43.858;25.974;2022-11-04T08:58:40;53.67;;;33.38;;
42168;SDS011;27838;43.858;25.974;2022-11-04T09:01:07;32.38;;;12.73;;
42168;SDS011;27838;43.858;25.974;2022-11-04T09:03:38;27.55;;;12.35;;
42168;SDS011;27838;43.858;25.974;2022-11-04T09:06:07;62.67;;;41.42;;
42168;SDS011;27838;43.858;25.974;2022-11-04T09:08:35;56.10;;;24.00;;
42168;SDS011;27838;43.858;25.974;2022-11-04T09:11:06;36.50;;;15.68;;
42168;SDS011;27838;43.858;25.974;2022-11-04T09:16:01;38.45;;;21.80;;
42168;SDS011;27838;43.858;25.974;2022-11-04T09:18:28;40.72;;;22.60;;
42168;SDS011;27838;43.858;25.974;2022-11-04T09:20:59;21.13;;;10.98;;
42168;SDS011;27838;43.858;25.974;2022-11-04T09:23:26;36.70;;;19.92;;
42168;SDS011;27838;43.858;25.974;2022-11-04T09:25:53;25.30;;;10.10;;
42168;SDS011;27838;43.858;25.974;2022-11-04T09:28:21;28.02;;;13.57;;
42168;SDS011;27838;43.858;25.974;2022-11-04T09:30:49;21.35;;;11.38;;
42168;SDS011;27838;43.858;25.974;2022-11-04T09:33:16;22.63;;;10.80;;
42168;SDS011;27838;43.858;25.974;2022-11-04T09:35:43;31.42;;;12.07;;
42168;SDS011;27838;43.858;25.974;2022-11-04T09:38:18;37.00;;;12.98;;
42168;SDS011;27838;43.858;25.974;2022-11-04T09:40:45;24.95;;;11.93;;
42168;SDS011;27838;43.858;25.974;2022-11-04T09:46:14;27.95;;;11.80;;
42168;SDS011;27838;43.858;25.974;2022-11-04T09:48:43;21.83;;;10.90;;
42168;SDS011;27838;43.858;25.974;2022-11-04T09:51:20;21.13;;;10.68;;
42168;SDS011;27838;43.858;25.974;2022-11-04T09:53:52;18.08;;;10.25;;
42168;SDS011;27838;43.858;25.974;2022-11-04T09:56:32;23.45;;;10.63;;
42168;SDS011;27838;43.858;25.974;2022-11-04T09:59:03;19.25;;;9.70;;
42168;SDS011;27838;43.858;25.974;2022-11-04T10:01:41;24.05;;;12.38;;
42168;SDS011;27838;43.858;25.974;2022-11-04T10:04:22;16.67;;;9.95;;
42168;SDS011;27838;43.858;25.974;2022-11-04T10:18:27;18.15;;;10.82;;
42168;SDS011;27838;43.858;25.974;2022-11-04T10:21:15;18.80;;;9.48;;
42168;SDS011;27838;43.858;25.974;2022-11-04T10:23:56;21.67;;;9.10;;
42168;SDS011;27838;43.858;25.974;2022-11-04T10:26:45;22.17;;;10.30;;
42168;SDS011;27838;43.858;25.974;2022-11-04T10:29:36;13.52;;;9.10;;
42168;SDS011;27838;43.858;25.974;2022-11-04T10:32:23;15.00;;;8.05;;
42168;SDS011;27838;43.858;25.974;2022-11-04T10:35:03;23.05;;;9.93;;
42168;SDS011;27838;43.858;25.974;2022-11-04T10:37:40;17.95;;;10.00;;
42168;SDS011;27838;43.858;25.974;2022-11-04T10:40:16;16.80;;;9.75;;
42168;SDS011;27838;43.858;25.974;2022-11-04T10:42:49;15.75;;;9.05;;
42168;SDS011;27838;43.858;25.974;2022-11-04T10:45:18;22.00;;;9.73;;
42168;SDS011;27838;43.858;25.974;2022-11-04T10:47:56;15.25;;;9.25;;
42168;SDS011;27838;43.858;25.974;2022-11-04T10:50:29;13.82;;;9.10;;
42168;SDS011;27838;43.858;25.974;2022-11-04T10:53:18;18.55;;;9.15;;
42168;SDS011;27838;43.858;25.974;2022-11-04T10:56:06;16.45;;;8.85;;
42168;SDS011;27838;43.858;25.974;2022-11-04T10:58:44;22.83;;;9.82;;
42168;SDS011;27838;43.858;25.974;2022-11-04T11:01:31;16.90;;;9.82;;
42168;SDS011;27838;43.858;25.974;2022-11-04T11:03:59;16.15;;;8.65;;
42168;SDS011;27838;43.858;25.974;2022-11-04T11:06:28;14.68;;;9.40;;
42168;SDS011;27838;43.858;25.974;2022-11-04T11:09:13;18.60;;;9.23;;
42168;SDS011;27838;43.858;25.974;2022-11-04T11:11:47;14.95;;;9.10;;
42168;SDS011;27838;43.858;25.974;2022-11-04T11:14:16;16.65;;;9.50;;
42168;SDS011;27838;43.858;25.974;2022-11-04T11:16:45;17.98;;;9.00;;
42168;SDS011;27838;43.858;25.974;2022-11-04T11:21:46;23.23;;;10.23;;
42168;SDS011;27838;43.858;25.974;2022-11-04T11:24:21;20.25;;;9.10;;
42168;SDS011;27838;43.858;25.974;2022-11-04T11:26:48;16.17;;;9.55;;
42168;SDS011;27838;43.858;25.974;2022-11-04T11:29:22;24.98;;;9.38;;
42168;SDS011;27838;43.858;25.974;2022-11-04T11:31:55;21.42;;;9.70;;
42168;SDS011;27838;43.858;25.974;2022-11-04T11:34:25;15.98;;;9.38;;
42168;SDS011;27838;43.858;25.974;2022-11-04T11:36:57;18.73;;;8.85;;
42168;SDS011;27838;43.858;25.974;2022-11-04T11:39:35;18.92;;;8.98;;
42168;SDS011;27838;43.858;25.974;2022-11-04T11:42:12;20.25;;;9.10;;
42168;SDS011;27838;43.858;25.974;2022-11-04T11:44:50;21.30;;;9.05;;
42168;SDS011;27838;43.858;25.974;2022-11-04T11:52:31;15.18;;;8.85;;
42168;SDS011;27838;43.858;25.974;2022-11-04T11:58:10;23.63;;;9.00;;
42168;SDS011;27838;43.858;25.974;2022-11-04T12:00:41;15.32;;;9.15;;
42168;SDS011;27838;43.858;25.974;2022-11-04T12:03:20;17.77;;;8.77;;
42168;SDS011;27838;43.858;25.974;2022-11-04T12:22:22;17.08;;;9.07;;
42168;SDS011;27838;43.858;25.974;2022-11-04T12:31:07;18.15;;;9.25;;
42168;SDS011;27838;43.858;25.974;2022-11-04T12:47:31;30.98;;;10.60;;
42168;SDS011;27838;43.858;25.974;2022-11-04T12:56:10;20.42;;;11.13;;
42168;SDS011;27838;43.858;25.974;2022-11-04T13:01:30;22.83;;;10.90;;
42168;SDS011;27838;43.858;25.974;2022-11-04T13:04:19;25.77;;;11.68;;
42168;SDS011;27838;43.858;25.974;2022-11-04T13:06:52;29.63;;;11.90;;
42168;SDS011;27838;43.858;25.974;2022-11-04T13:12:11;32.78;;;12.32;;
42168;SDS011;27838;43.858;25.974;2022-11-04T13:17:09;29.17;;;12.13;;
42168;SDS011;27838;43.858;25.974;2022-11-04T13:19:42;29.05;;;12.52;;
42168;SDS011;27838;43.858;25.974;2022-11-04T13:22:19;26.38;;;10.48;;
42168;SDS011;27838;43.858;25.974;2022-11-04T13:25:01;27.20;;;11.40;;
42168;SDS011;27838;43.858;25.974;2022-11-04T13:27:34;26.45;;;11.15;;
42168;SDS011;27838;43.858;25.974;2022-11-04T13:33:02;23.20;;;10.68;;
42168;SDS011;27838;43.858;25.974;2022-11-04T13:35:59;19.65;;;10.18;;
42168;SDS011;27838;43.858;25.974;2022-11-04T13:38:52;20.35;;;10.23;;
42168;SDS011;27838;43.858;25.974;2022-11-04T13:43:58;23.45;;;11.15;;
42168;SDS011;27838;43.858;25.974;2022-11-04T13:46:29;26.42;;;10.88;;
42168;SDS011;27838;43.858;25.974;2022-11-04T13:51:34;25.05;;;10.60;;
42168;SDS011;27838;43.858;25.974;2022-11-04T13:54:53;35.63;;;10.77;;
42168;SDS011;27838;43.858;25.974;2022-11-04T13:57:06;29.67;;;10.77;;
42168;SDS011;27838;43.858;25.974;2022-11-04T13:59:39;35.63;;;12.05;;
42168;SDS011;27838;43.858;25.974;2022-11-04T14:02:21;37.33;;;12.00;;
42168;SDS011;27838;43.858;25.974;2022-11-04T14:04:49;38.35;;;12.05;;
42168;SDS011;27838;43.858;25.974;2022-11-04T14:07:16;29.33;;;11.23;;
42168;SDS011;27838;43.858;25.974;2022-11-04T14:14:37;32.30;;;10.95;;
42168;SDS011;27838;43.858;25.974;2022-11-04T14:19:59;25.52;;;11.88;;
42168;SDS011;27838;43.858;25.974;2022-11-04T14:25:32;45.70;;;12.52;;
42168;SDS011;27838;43.858;25.974;2022-11-04T14:28:15;34.15;;;12.52;;
42168;SDS011;27838;43.858;25.974;2022-11-04T14:30:57;33.65;;;13.07;;
42168;SDS011;27838;43.858;25.974;2022-11-04T14:35:53;50.90;;;13.98;;
42168;SDS011;27838;43.858;25.974;2022-11-04T14:41:19;43.15;;;13.65;;
42168;SDS011;27838;43.858;25.974;2022-11-04T14:43:46;38.50;;;13.82;;
42168;SDS011;27838;43.858;25.974;2022-11-04T14:46:18;44.08;;;14.18;;
42168;SDS011;27838;43.858;25.974;2022-11-04T14:48:49;52.40;;;15.00;;
42168;SDS011;27838;43.858;25.974;2022-11-04T14:51:28;39.13;;;14.05;;
42168;SDS011;27838;43.858;25.974;2022-11-04T14:54:03;57.75;;;15.27;;
42168;SDS011;27838;43.858;25.974;2022-11-04T14:56:33;38.10;;;13.68;;
42168;SDS011;27838;43.858;25.974;2022-11-04T14:59:03;49.90;;;14.60;;
42168;SDS011;27838;43.858;25.974;2022-11-04T15:04:06;37.13;;;14.60;;
42168;SDS011;27838;43.858;25.974;2022-11-04T15:06:44;60.17;;;16.40;;
42168;SDS011;27838;43.858;25.974;2022-11-04T15:09:29;51.55;;;15.73;;
42168;SDS011;27838;43.858;25.974;2022-11-04T15:12:10;50.08;;;15.20;;
42168;SDS011;27838;43.858;25.974;2022-11-04T15:14:55;43.08;;;15.43;;
42168;SDS011;27838;43.858;25.974;2022-11-04T15:17:25;59.35;;;19.75;;
42168;SDS011;27838;43.858;25.974;2022-11-04T15:19:55;67.45;;;19.30;;
42168;SDS011;27838;43.858;25.974;2022-11-04T15:22:24;61.88;;;19.65;;
42168;SDS011;27838;43.858;25.974;2022-11-04T15:24:52;67.57;;;19.40;;
42168;SDS011;27838;43.858;25.974;2022-11-04T15:27:24;64.03;;;18.33;;
42168;SDS011;27838;43.858;25.974;2022-11-04T15:29:56;48.10;;;18.55;;
42168;SDS011;27838;43.858;25.974;2022-11-04T15:32:24;53.53;;;20.45;;
42168;SDS011;27838;43.858;25.974;2022-11-04T15:34:51;65.45;;;23.38;;
42168;SDS011;27838;43.858;25.974;2022-11-04T15:37:20;49.63;;;23.42;;
42168;SDS011;27838;43.858;25.974;2022-11-04T15:39:51;67.35;;;21.92;;
42168;SDS011;27838;43.858;25.974;2022-11-04T15:42:22;70.78;;;20.90;;
42168;SDS011;27838;43.858;25.974;2022-11-04T15:48:40;44.40;;;17.88;;
42168;SDS011;27838;43.858;25.974;2022-11-04T15:51:32;43.65;;;17.48;;
42168;SDS011;27838;43.858;25.974;2022-11-04T15:53:49;50.13;;;17.38;;
42168;SDS011;27838;43.858;25.974;2022-11-04T15:56:26;47.90;;;16.77;;
42168;SDS011;27838;43.858;25.974;2022-11-04T15:58:54;46.75;;;17.65;;
42168;SDS011;27838;43.858;25.974;2022-11-04T16:01:22;47.67;;;16.48;;
42168;SDS011;27838;43.858;25.974;2022-11-04T16:03:51;49.03;;;15.27;;
42168;SDS011;27838;43.858;25.974;2022-11-04T16:06:36;47.03;;;16.73;;
42168;SDS011;27838;43.858;25.974;2022-11-04T16:09:26;35.60;;;13.77;;
42168;SDS011;27838;43.858;25.974;2022-11-04T16:12:02;44.47;;;13.85;;
42168;SDS011;27838;43.858;25.974;2022-11-04T16:14:32;27.70;;;12.88;;
42168;SDS011;27838;43.858;25.974;2022-11-04T16:16:59;37.65;;;13.70;;
42168;SDS011;27838;43.858;25.974;2022-11-04T16:19:26;37.25;;;14.00;;
42168;SDS011;27838;43.858;25.974;2022-11-04T16:22:02;47.10;;;15.15;;
42168;SDS011;27838;43.858;25.974;2022-11-04T16:24:33;43.58;;;17.33;;
42168;SDS011;27838;43.858;25.974;2022-11-04T16:27:08;37.85;;;13.10;;
42168;SDS011;27838;43.858;25.974;2022-11-04T16:29:37;31.40;;;14.00;;
42168;SDS011;27838;43.858;25.974;2022-11-04T16:32:05;34.28;;;13.48;;
42168;SDS011;27838;43.858;25.974;2022-11-04T16:34:56;30.75;;;13.82;;
42168;SDS011;27838;43.858;25.974;2022-11-04T16:37:25;29.23;;;13.75;;
42168;SDS011;27838;43.858;25.974;2022-11-04T16:39:52;38.38;;;13.88;;
42168;SDS011;27838;43.858;25.974;2022-11-04T16:42:19;29.48;;;15.90;;
42168;SDS011;27838;43.858;25.974;2022-11-04T16:44:48;31.35;;;15.68;;
42168;SDS011;27838;43.858;25.974;2022-11-04T16:47:16;44.72;;;18.23;;
42168;SDS011;27838;43.858;25.974;2022-11-04T16:49:44;41.20;;;18.35;;
42168;SDS011;27838;43.858;25.974;2022-11-04T16:52:15;59.40;;;25.25;;
42168;SDS011;27838;43.858;25.974;2022-11-04T16:54:49;48.85;;;20.67;;
42168;SDS011;27838;43.858;25.974;2022-11-04T16:57:16;61.72;;;31.13;;
42168;SDS011;27838;43.858;25.974;2022-11-04T16:59:42;62.63;;;29.00;;
42168;SDS011;27838;43.858;25.974;2022-11-04T17:02:13;58.92;;;26.55;;
42168;SDS011;27838;43.858;25.974;2022-11-04T17:04:43;67.82;;;33.25;;
42168;SDS011;27838;43.858;25.974;2022-11-04T17:07:10;70.93;;;35.83;;
42168;SDS011;27838;43.858;25.974;2022-11-04T17:09:37;87.80;;;39.83;;
42168;SDS011;27838;43.858;25.974;2022-11-04T17:12:04;85.30;;;31.95;;
42168;SDS011;27838;43.858;25.974;2022-11-04T17:14:31;82.03;;;31.13;;
42168;SDS011;27838;43.858;25.974;2022-11-04T17:16:57;62.90;;;29.02;;
42168;SDS011;27838;43.858;25.974;2022-11-04T17:19:24;64.15;;;27.77;;
42168;SDS011;27838;43.858;25.974;2022-11-04T17:21:50;62.47;;;26.80;;
42168;SDS011;27838;43.858;25.974;2022-11-04T17:24:17;51.15;;;24.67;;